createdAt,value
2023-01-02T00:00:20.918Z,7.63
2023-01-02T00:05:32.851Z,7.67
2023-01-02T00:10:37.158Z,7.80
2023-01-02T00:15:39.385Z,9.53
2023-01-02T00:20:41.192Z,9.33
2023-01-02T00:25:47.099Z,7.83
2023-01-02T00:30:51.122Z,8.77
2023-01-02T00:35:55.326Z,8.70
2023-01-02T00:40:59.345Z,11.00
2023-01-02T00:46:03.648Z,14.60
2023-01-02T00:51:10.776Z,16.80
2023-01-02T00:56:12.534Z,16.83
2023-01-02T01:01:18.423Z,15.67
2023-01-02T01:06:27.037Z,17.03
2023-01-02T01:11:31.654Z,18.30
2023-01-02T01:16:35.688Z,16.57
2023-01-02T01:21:41.392Z,15.07
2023-01-02T01:26:47.243Z,15.47
2023-01-02T01:31:53.086Z,15.30
2023-01-02T01:36:54.803Z,14.53
2023-01-02T01:41:59.515Z,15.63
2023-01-02T01:47:01.847Z,14.80
2023-01-02T01:52:15.256Z,16.73
2023-01-02T01:57:26.659Z,17.30
2023-01-02T02:02:30.073Z,19.83
2023-01-02T02:07:40.462Z,21.57
2023-01-02T02:12:48.771Z,20.87
2023-01-02T02:18:06.754Z,22.80
2023-01-02T02:23:49.534Z,24.27
2023-01-02T02:29:16.819Z,28.92
2023-01-02T02:34:24.696Z,23.90
2023-01-02T02:39:35.359Z,23.83
2023-01-02T02:44:49.797Z,24.23
2023-01-02T02:50:00.745Z,27.87
2023-01-02T02:55:10.274Z,29.53
2023-01-02T03:00:17.200Z,29.27
2023-01-02T03:05:41.187Z,32.23
2023-01-02T03:10:47.272Z,33.43
2023-01-02T03:15:48.955Z,33.23
2023-01-02T03:21:03.500Z,30.57
2023-01-02T03:26:07.403Z,30.53
2023-01-02T03:31:21.667Z,29.70
2023-01-02T03:36:25.072Z,28.20
2023-01-02T03:41:37.126Z,31.07
2023-01-02T03:46:55.531Z,26.53
2023-01-02T03:51:57.307Z,25.93
2023-01-02T03:57:00.302Z,26.27
2023-01-02T04:02:14.829Z,26.97
2023-01-02T04:07:23.517Z,25.97
2023-01-02T04:12:29.617Z,23.00
2023-01-02T04:17:40.028Z,24.97
2023-01-02T04:22:53.409Z,23.50
2023-01-02T04:27:58.730Z,22.97
2023-01-02T04:33:05.140Z,23.53
2023-01-02T04:38:11.636Z,22.47
2023-01-02T04:43:19.727Z,22.83
2023-01-02T04:48:23.718Z,21.50
2023-01-02T04:53:25.423Z,17.77
2023-01-02T04:58:28.171Z,22.93
2023-01-02T05:03:32.519Z,20.73
2023-01-02T05:08:38.259Z,19.60
2023-01-02T05:13:40.348Z,21.57
2023-01-02T05:18:42.054Z,21.37
2023-01-02T05:23:52.480Z,21.90
2023-01-02T05:28:57.540Z,22.20
2023-01-02T05:34:02.887Z,24.70
2023-01-02T05:39:08.989Z,24.33
2023-01-02T05:44:19.152Z,22.10
2023-01-02T05:49:23.337Z,23.10
2023-01-02T05:54:25.061Z,21.20
2023-01-02T05:59:31.072Z,22.17
2023-01-02T06:04:35.156Z,19.17
2023-01-02T06:09:41.236Z,17.30
2023-01-02T06:14:45.722Z,18.45
2023-01-02T06:19:53.941Z,16.13
2023-01-02T06:24:58.322Z,17.83
2023-01-02T06:30:02.872Z,17.93
2023-01-02T06:35:05.062Z,17.80
2023-01-02T06:40:09.521Z,17.07
2023-01-02T06:45:16.576Z,18.02
2023-01-02T06:50:24.811Z,15.20
2023-01-02T06:55:28.085Z,14.07
2023-01-02T07:00:33.332Z,15.35
2023-01-02T07:05:35.552Z,15.80
2023-01-02T07:10:41.759Z,16.58
2023-01-02T07:15:43.445Z,14.60
2023-01-02T07:20:54.017Z,15.70
2023-01-02T07:26:01.090Z,13.85
2023-01-02T07:31:07.362Z,15.70
2023-01-02T07:36:12.728Z,12.63
2023-01-02T07:41:16.366Z,13.15
2023-01-02T07:46:19.958Z,14.63
2023-01-02T07:51:27.637Z,13.53
2023-01-02T07:56:35.119Z,12.83
2023-01-02T08:01:38.439Z,13.90
2023-01-02T08:06:43.464Z,14.10
2023-01-02T08:11:47.295Z,14.30
2023-01-02T08:16:52.264Z,16.27
2023-01-02T08:22:00.129Z,20.00
2023-01-02T08:27:02.061Z,20.83
2023-01-02T08:32:04.168Z,8.40
2023-01-02T08:37:10.731Z,6.60
2023-01-02T08:42:13.774Z,5.70
2023-01-02T08:47:15.921Z,5.03
2023-01-02T08:52:17.697Z,5.85
2023-01-02T08:57:21.673Z,6.90
2023-01-02T09:02:26.199Z,6.72
2023-01-02T09:07:32.418Z,9.70
2023-01-02T09:12:36.661Z,9.50
2023-01-02T09:17:38.524Z,9.00
2023-01-02T09:22:49.009Z,5.40
2023-01-02T09:27:51.674Z,5.33
2023-01-02T09:32:54.487Z,5.27
2023-01-02T09:37:56.256Z,5.70
2023-01-02T09:42:58.690Z,5.50
2023-01-02T09:48:00.539Z,7.53
2023-01-02T09:53:04.190Z,7.43
2023-01-02T09:58:21.951Z,5.60
2023-01-02T10:03:28.559Z,5.83
2023-01-02T10:09:01.769Z,5.73
2023-01-02T10:14:18.538Z,6.20
2023-01-02T10:19:23.128Z,5.00
2023-01-02T10:24:52.917Z,5.03
2023-01-02T10:30:15.142Z,4.87
2023-01-02T10:35:23.292Z,3.10
2023-01-02T10:40:33.216Z,3.77
2023-01-02T10:45:38.486Z,3.07
2023-01-02T10:50:42.681Z,3.77
2023-01-02T10:55:46.968Z,3.37
2023-01-02T11:01:14.119Z,2.70
2023-01-02T11:06:27.556Z,2.50
2023-01-02T11:11:32.716Z,2.13
2023-01-02T11:16:44.865Z,1.90
2023-01-02T11:21:54.593Z,1.90
2023-01-02T11:27:01.659Z,1.70
2023-01-02T11:32:06.554Z,2.33
2023-01-02T11:37:13.898Z,2.00
2023-01-02T11:42:44.678Z,2.40
2023-01-02T11:47:52.805Z,2.57
2023-01-02T11:52:57.964Z,1.97
2023-01-02T11:58:13.266Z,2.17
2023-01-02T12:03:21.410Z,2.03
2023-01-02T12:08:50.918Z,2.30
2023-01-02T12:14:07.781Z,2.07
2023-01-02T12:19:31.285Z,2.30
2023-01-02T12:24:55.484Z,1.93
2023-01-02T12:30:04.510Z,1.60
2023-01-02T12:35:34.297Z,1.50
2023-01-02T12:40:51.943Z,1.40
2023-01-02T12:46:08.259Z,1.53
2023-01-02T12:51:42.108Z,1.70
2023-01-02T12:56:59.193Z,1.50
2023-01-02T13:02:22.170Z,1.77
2023-01-02T13:07:34.831Z,1.80
2023-01-02T13:12:38.716Z,2.20
2023-01-02T13:17:57.395Z,1.80
2023-01-02T13:23:24.134Z,1.60
2023-01-02T13:28:28.125Z,1.43
2023-01-02T13:33:29.744Z,1.83
2023-01-02T13:38:37.671Z,1.50
2023-01-02T13:43:41.840Z,1.70
2023-01-02T13:48:47.183Z,2.07
2023-01-02T13:53:51.101Z,2.10
2023-01-02T13:59:01.672Z,1.70
2023-01-02T14:04:12.863Z,1.80
2023-01-02T14:09:21.834Z,1.90
2023-01-02T14:14:26.682Z,1.90
2023-01-02T14:19:31.101Z,1.60
2023-01-02T14:24:39.543Z,1.80
2023-01-02T14:29:58.914Z,1.90
2023-01-02T14:35:05.511Z,2.07
2023-01-02T14:40:14.175Z,2.20
2023-01-02T14:45:20.912Z,2.33
2023-01-02T14:50:25.562Z,2.40
2023-01-02T14:55:41.373Z,2.00
2023-01-02T15:00:47.736Z,2.80
2023-01-02T15:05:54.978Z,2.50
2023-01-02T15:11:18.154Z,2.70
2023-01-02T15:16:24.021Z,2.67
2023-01-02T15:21:29.617Z,2.70
2023-01-02T15:26:35.863Z,2.00
2023-01-02T15:31:39.282Z,2.73
2023-01-02T15:36:44.158Z,2.97
2023-01-02T15:41:50.969Z,2.80
2023-01-02T15:46:52.809Z,3.03
2023-01-02T15:51:57.455Z,2.50
2023-01-02T15:57:10.091Z,2.73
2023-01-02T16:02:37.268Z,2.57
2023-01-02T16:07:43.377Z,3.50
2023-01-02T16:12:52.675Z,3.33
2023-01-02T16:17:55.656Z,2.37
2023-01-02T16:23:03.909Z,3.83
2023-01-02T16:28:33.952Z,3.40
2023-01-02T16:33:34.360Z,3.67
2023-01-02T16:38:55.985Z,3.23
2023-01-02T16:43:57.731Z,3.83
2023-01-02T16:49:05.387Z,3.43
2023-01-02T16:54:07.386Z,3.03
2023-01-02T16:59:12.053Z,5.13
2023-01-02T17:04:16.662Z,3.23
2023-01-02T17:09:18.514Z,4.10
2023-01-02T17:14:21.468Z,3.77
2023-01-02T17:19:28.811Z,3.40
2023-01-02T17:24:32.798Z,3.57
2023-01-02T17:29:39.800Z,3.60
2023-01-02T17:34:41.540Z,4.10
2023-01-02T17:39:48.551Z,3.90
2023-01-02T17:44:55.567Z,4.00
2023-01-02T17:50:02.343Z,3.93
2023-01-02T17:55:08.522Z,3.90
2023-01-02T18:00:14.830Z,3.23
2023-01-02T18:05:21.319Z,4.53
2023-01-02T18:10:32.666Z,4.30
2023-01-02T18:15:37.119Z,5.43
2023-01-02T18:20:41.686Z,3.73
2023-01-02T18:25:45.199Z,4.57
2023-01-02T18:30:47.486Z,4.67
2023-01-02T18:36:01.137Z,3.67
2023-01-02T18:41:25.023Z,4.07
2023-01-02T18:47:03.926Z,4.17
2023-01-02T18:52:11.333Z,4.10
2023-01-02T18:57:22.170Z,4.53
2023-01-02T19:02:31.142Z,5.30
2023-01-02T19:07:35.124Z,4.70
2023-01-02T19:13:08.107Z,4.90
2023-01-02T19:18:13.982Z,4.60
2023-01-02T19:23:24.849Z,4.20
2023-01-02T19:28:29.875Z,4.87
2023-01-02T19:33:42.620Z,4.40
2023-01-02T19:38:49.679Z,5.53
2023-01-02T19:43:51.449Z,5.00
2023-01-02T19:48:53.185Z,5.53
2023-01-02T19:53:58.783Z,4.40
2023-01-02T19:59:08.315Z,5.00
2023-01-02T20:04:14.477Z,5.87
2023-01-02T20:09:25.824Z,5.70
2023-01-02T20:14:27.539Z,6.37
2023-01-02T20:19:32.303Z,6.20
2023-01-02T20:24:35.257Z,6.23
2023-01-02T20:29:39.204Z,5.53
2023-01-02T20:34:41.301Z,5.50
2023-01-02T20:39:44.889Z,5.27
2023-01-02T20:44:47.607Z,5.53
2023-01-02T20:49:51.590Z,5.73
2023-01-02T20:54:58.315Z,4.87
2023-01-02T21:00:00.336Z,5.93
2023-01-02T21:05:03.249Z,6.33
2023-01-02T21:10:07.847Z,6.27
2023-01-02T21:15:32.380Z,6.80
2023-01-02T21:20:41.151Z,6.33
2023-01-02T21:25:46.572Z,7.00
2023-01-02T21:30:54.120Z,4.23
2023-01-02T21:36:00.302Z,6.23
2023-01-02T21:41:25.402Z,4.83
2023-01-02T21:46:29.857Z,5.30
2023-01-02T21:51:34.268Z,3.97
2023-01-02T21:56:38.740Z,5.00
2023-01-02T22:01:41.735Z,4.03
2023-01-02T22:07:29.389Z,4.70
2023-01-02T22:12:07.776Z,4.60
2023-01-02T22:17:11.715Z,4.27
2023-01-02T22:22:15.977Z,5.10
2023-01-02T22:27:19.179Z,4.50
2023-01-02T22:32:26.048Z,5.07
2023-01-02T22:37:27.764Z,4.77
2023-01-02T22:43:00.203Z,4.13
2023-01-02T22:48:06.397Z,4.10
2023-01-02T22:53:18.382Z,3.77
2023-01-02T22:58:28.455Z,3.33
2023-01-02T23:03:39.486Z,3.63
2023-01-02T23:08:43.013Z,3.00
2023-01-02T23:13:52.940Z,3.47
2023-01-02T23:19:16.118Z,2.97
2023-01-02T23:24:27.756Z,2.70
2023-01-02T23:29:30.225Z,2.87
2023-01-02T23:34:36.607Z,2.60
2023-01-02T23:39:38.329Z,2.83
2023-01-02T23:44:41.071Z,2.33
2023-01-02T23:49:42.841Z,2.50
2023-01-02T23:54:52.489Z,2.17
2023-01-02T23:59:56.636Z,1.70
